Des Plaines, Illinois
Current Conditions -  °F | °C
As of 7:51 PM on Friday 24 Oct 2014 (Local Time) from KORD Reporting Station
Broken Clouds Broken Clouds  
Wind Chill: 61°   Ceiling: 8500
Heat Index: 61°   Visibility: 10mi
Dew Point: 45°   Wind: 7mph
Humidity: 56%   Direction: 190°S
Pressure: 29.95"   Gusts: NA
Location:  42.04°N, 87.89°W
Report Text: KORD 250051Z 19006KT 10SM BKN085 BKN250 16/07 A2995 RMK AO2 SLP141 T01610072
Loading
Personal Weather Stations






























Interactive Weather Map
Tropical Storm Tracking
New forecast layout! Learn more

10-Day Weather Forecast

Advertisements
Track Severe Weather on mobile